Time;durP1;ratioP1;P1;durP2;ratioP2;P2;SDS_P1;SDS_P2;PMS_P1;PMS_P2;Temp;Humidity;BMP_temperature;BMP_pressure;BME280_temperature;BME280_humidity;BME280_pressure;Samples;Min_cycle;Max_cycle;Signal;HPM_P1;HPM_P2
2021/08/10 00:01:44;;;;;;;1.53;1.43;;;18.30;99.90;18.10;97334.00;;;;5064680;28;20224;-84
2021/08/10 00:04:33;;;;;;;1.73;1.30;;;18.20;99.90;18.00;97340.00;;;;5063791;28;20572;-86
2021/08/10 00:07:23;;;;;;;1.50;1.23;;;18.20;99.90;17.90;97329.00;;;;5077789;28;20211;-85
2021/08/10 00:10:12;;;;;;;1.50;1.40;;;18.10;99.90;17.80;97337.00;;;;5039046;28;20244;-84
2021/08/10 00:13:01;;;;;;;1.90;1.33;;;18.10;99.90;17.80;97334.00;;;;5034778;28;20696;-85
2021/08/10 00:15:52;;;;;;;1.50;1.10;;;18.00;99.90;17.90;97327.00;;;;5036491;28;20207;-86
2021/08/10 00:18:41;;;;;;;2.17;1.60;;;18.00;99.90;17.70;97320.00;;;;5033140;28;20201;-87
2021/08/10 00:21:30;;;;;;;1.40;1.30;;;17.90;99.90;17.70;97311.00;;;;5032982;28;20233;-87
2021/08/10 00:24:19;;;;;;;2.63;1.37;;;17.90;99.90;17.50;97308.00;;;;5033048;28;20720;-88
2021/08/10 00:27:08;;;;;;;1.60;1.50;;;17.80;99.90;17.50;97318.00;;;;5032951;28;20216;-86
2021/08/10 00:29:57;;;;;;;2.50;1.50;;;17.80;99.90;17.50;97313.00;;;;5033392;28;20228;-87
2021/08/10 00:32:47;;;;;;;1.50;1.40;;;17.70;99.90;17.40;97319.00;;;;5031659;28;20273;-84
2021/08/10 00:35:36;;;;;;;1.73;1.23;;;17.70;99.90;17.30;97312.00;;;;5031830;28;20675;-86
2021/08/10 00:38:26;;;;;;;2.10;1.73;;;17.60;99.90;17.30;97309.00;;;;5032787;28;20202;-85
2021/08/10 00:41:15;;;;;;;2.40;1.83;;;17.60;99.90;17.30;97308.00;;;;5032450;28;20218;-84
2021/08/10 00:44:05;;;;;;;2.33;1.70;;;17.50;99.90;16.80;97301.00;;;;5031603;28;20216;-85
2021/08/10 00:46:54;;;;;;;2.93;1.77;;;17.40;99.90;16.90;97305.00;;;;5032505;28;20349;-84
2021/08/10 00:49:44;;;;;;;2.23;1.30;;;17.30;99.90;17.00;97301.00;;;;5032526;28;20213;-86
2021/08/10 00:52:33;;;;;;;1.90;1.23;;;17.20;99.90;16.80;97292.00;;;;5031674;28;20217;-87
2021/08/10 00:55:22;;;;;;;1.87;1.50;;;17.10;99.90;16.90;97281.00;;;;5030187;28;20215;-85
2021/08/10 00:58:12;;;;;;;2.50;1.73;;;17.10;99.90;16.90;97284.00;;;;5032111;28;20221;-87
2021/08/10 01:01:01;;;;;;;2.30;1.13;;;17.10;99.90;16.80;97277.00;;;;5031805;28;20233;-86
2021/08/10 01:03:50;;;;;;;2.73;1.40;;;17.00;99.90;16.70;97288.00;;;;5031868;28;20228;-86
2021/08/10 01:06:52;;;;;;;1.47;1.07;;;17.00;99.90;16.80;97292.00;;;;5032234;28;20202;-85
2021/08/10 01:09:50;;;;;;;1.20;1.10;;;16.90;99.90;16.70;97292.00;;;;5049094;28;20200;-87
2021/08/10 01:12:52;;;;;;;1.43;1.27;;;16.90;99.90;16.60;97285.00;;;;5049467;28;20244;-83
2021/08/10 01:15:50;;;;;;;5.97;2.10;;;16.90;99.90;16.60;97283.00;;;;5050836;28;20207;-87
2021/08/10 01:18:52;;;;;;;6.87;1.50;;;16.80;99.90;16.70;97289.00;;;;5051186;28;20204;-85
2021/08/10 01:21:46;;;;;;;1.27;0.97;;;16.80;99.90;16.50;97286.00;;;;5052021;28;20693;-83
2021/08/10 01:24:40;;;;;;;1.47;1.10;;;16.80;99.90;16.60;97290.00;;;;5050583;28;20279;-83
2021/08/10 01:27:46;;;;;;;4.03;1.30;;;16.80;99.90;16.70;97287.00;;;;5049999;28;20207;-87
2021/08/10 01:30:42;;;;;;;2.43;1.80;;;16.80;99.90;16.80;97276.00;;;;5050951;28;20763;-84
2021/08/10 01:33:37;;;;;;;1.93;1.70;;;16.80;99.90;16.80;97277.00;;;;5049586;28;20572;-86
2021/08/10 01:36:27;;;;;;;3.43;1.93;;;16.80;99.90;16.60;97277.00;;;;5050786;28;20204;-86
2021/08/10 01:39:19;;;;;;;1.73;1.63;;;16.80;99.90;16.50;97282.00;;;;5051407;28;20204;-86
2021/08/10 01:42:10;;;;;;;1.93;1.57;;;16.80;99.90;16.40;97281.00;;;;5050460;28;20207;-84
2021/08/10 01:45:02;;;;;;;2.20;1.40;;;16.70;99.90;16.50;97278.00;;;;5056214;28;20585;-83
2021/08/10 01:47:52;;;;;;;1.00;0.97;;;16.70;99.90;16.50;97279.00;;;;5070957;28;20200;-86
2021/08/10 01:50:45;;;;;;;3.60;2.03;;;16.70;99.90;16.50;97274.00;;;;5070300;28;20231;-88
2021/08/10 01:53:34;;;;;;;1.83;1.60;;;16.70;99.90;16.50;97263.00;;;;5070001;28;20196;-86
2021/08/10 01:56:26;;;;;;;2.73;1.70;;;16.70;99.90;16.50;97260.00;;;;5070651;28;20200;-87
2021/08/10 01:59:18;;;;;;;1.97;1.60;;;16.70;99.90;16.30;97256.00;;;;5072708;28;20195;-83
2021/08/10 02:02:09;;;;;;;1.80;1.33;;;16.60;99.90;16.20;97276.00;;;;5073181;28;20218;-84
2021/08/10 02:04:58;;;;;;;3.17;1.57;;;16.60;99.90;16.10;97265.00;;;;5072426;28;20388;-87
2021/08/10 02:07:50;;;;;;;1.33;1.23;;;16.50;99.90;16.30;97268.00;;;;5069579;28;20204;-85
2021/08/10 02:10:41;;;;;;;6.53;1.50;;;16.50;99.90;16.30;97265.00;;;;5050266;28;20231;-85
2021/08/10 02:13:30;;;;;;;2.17;1.50;;;16.50;99.90;16.30;97263.00;;;;5049899;28;20204;-86
2021/08/10 02:16:20;;;;;;;2.57;1.90;;;16.50;99.90;16.40;97274.00;;;;5051050;28;20200;-85
2021/08/10 02:19:10;;;;;;;1.80;1.57;;;16.50;99.90;16.50;97266.00;;;;5052523;28;20250;-85
2021/08/10 02:22:04;;;;;;;2.40;1.67;;;16.50;99.90;16.40;97268.00;;;;5053081;28;20684;-82
2021/08/10 02:25:00;;;;;;;2.00;1.50;;;16.50;99.90;16.20;97265.00;;;;5056799;28;20211;-84
2021/08/10 02:27:53;;;;;;;1.60;1.40;;;16.50;99.90;16.20;97272.00;;;;5052250;28;20208;-88
2021/08/10 02:30:49;;;;;;;2.07;1.63;;;16.50;99.90;16.30;97268.00;;;;5052618;28;20224;-87
2021/08/10 02:33:39;;;;;;;2.77;2.00;;;16.50;99.90;16.20;97272.00;;;;5051506;28;20211;-86
2021/08/10 02:36:31;;;;;;;1.90;1.47;;;16.50;99.90;16.20;97274.00;;;;5051228;28;20575;-84
2021/08/10 02:39:21;;;;;;;2.30;1.50;;;16.40;99.90;16.20;97268.00;;;;5054307;28;20562;-85
2021/08/10 02:42:13;;;;;;;1.90;1.53;;;16.40;99.90;16.20;97276.00;;;;5053221;28;20204;-86
2021/08/10 02:45:02;;;;;;;3.27;1.67;;;16.40;99.90;16.00;97274.00;;;;5058483;28;20196;-86
2021/08/10 02:47:52;;;;;;;4.30;3.10;;;16.30;99.90;15.50;97266.00;;;;5072675;28;20199;-87
2021/08/10 02:50:41;;;;;;;4.93;1.90;;;16.20;99.90;15.60;97257.00;;;;5072856;28;20239;-86
2021/08/10 02:53:30;;;;;;;2.50;1.40;;;16.10;99.90;15.60;97270.00;;;;5073249;28;20775;-83
2021/08/10 02:56:24;;;;;;;2.47;2.10;;;16.00;99.90;15.40;97272.00;;;;5071088;28;20210;-88
2021/08/10 02:59:25;;;;;;;2.07;1.43;;;15.90;99.90;15.50;97277.00;;;;5070947;28;20676;-83
2021/08/10 03:02:17;;;;;;;2.33;1.73;;;15.80;99.90;15.60;97278.00;;;;5071428;28;20192;-85
2021/08/10 03:05:12;;;;;;;6.07;1.87;;;15.80;99.90;15.60;97277.00;;;;5070726;28;20696;-88
2021/08/10 03:08:02;;;;;;;1.70;1.60;;;15.80;99.90;15.60;97274.00;;;;5069346;28;20586;-86
2021/08/10 03:10:53;;;;;;;3.47;2.20;;;15.80;99.90;15.50;97270.00;;;;5054009;28;20231;-84
2021/08/10 03:13:45;;;;;;;2.83;2.10;;;15.80;99.90;15.30;97270.00;;;;5053997;28;20231;-88
2021/08/10 03:16:35;;;;;;;5.73;1.80;;;15.70;99.90;15.20;97273.00;;;;5050812;28;20200;-87
2021/08/10 03:19:27;;;;;;;1.40;1.30;;;15.60;99.90;15.20;97279.00;;;;5052897;28;20200;-85
2021/08/10 03:22:18;;;;;;;2.83;1.90;;;15.60;99.90;15.20;97281.00;;;;5047574;28;20207;-86
2021/08/10 03:25:08;;;;;;;2.97;1.90;;;15.50;99.90;15.20;97276.00;;;;5049931;28;20689;-82
2021/08/10 03:27:58;;;;;;;1.60;1.40;;;15.50;99.90;15.30;97285.00;;;;5049866;28;20279;-82
2021/08/10 03:30:47;;;;;;;2.03;1.50;;;15.50;99.90;15.20;97280.00;;;;5049944;28;20220;-84
2021/08/10 03:33:38;;;;;;;2.90;1.87;;;15.50;99.90;15.20;97272.00;;;;5051486;28;20231;-88
2021/08/10 03:36:27;;;;;;;1.80;1.57;;;15.50;99.90;15.20;97280.00;;;;5050984;28;20220;-86
2021/08/10 03:39:17;;;;;;;11.70;2.70;;;15.40;99.90;15.10;97281.00;;;;5051843;28;20211;-87
2021/08/10 03:42:08;;;;;;;1.77;1.40;;;15.40;99.90;15.00;97282.00;;;;5051375;28;20196;-85
2021/08/10 03:44:57;;;;;;;2.10;1.70;;;15.40;99.90;14.90;97288.00;;;;5055992;28;20196;-87
2021/08/10 03:47:46;;;;;;;2.40;1.40;;;15.30;99.90;14.80;97288.00;;;;5072850;28;20204;-88
2021/08/10 03:50:37;;;;;;;2.70;1.70;;;15.20;99.90;14.90;97282.00;;;;5073910;28;20302;-87
2021/08/10 03:53:26;;;;;;;2.77;1.70;;;15.20;99.90;14.90;97290.00;;;;5073304;28;20224;-85
2021/08/10 03:56:17;;;;;;;2.57;1.87;;;15.10;99.90;14.80;97292.00;;;;5075124;28;20196;-84
2021/08/10 03:59:08;;;;;;;3.87;2.03;;;15.20;99.90;14.40;97290.00;;;;5075057;28;20204;-86
2021/08/10 04:01:58;;;;;;;2.17;1.97;;;15.00;99.90;14.40;97289.00;;;;5073602;28;20583;-88
2021/08/10 04:04:52;;;;;;;2.30;1.80;;;14.90;99.90;14.60;97287.00;;;;5074244;28;20592;-85
2021/08/10 04:07:43;;;;;;;2.50;1.97;;;14.90;99.90;14.60;97293.00;;;;5072228;28;20208;-87
2021/08/10 04:10:32;;;;;;;2.90;2.33;;;14.80;99.90;14.50;97299.00;;;;5053428;28;20764;-88
2021/08/10 04:13:21;;;;;;;2.63;1.93;;;14.80;99.90;14.40;97296.00;;;;5053490;28;20236;-86
2021/08/10 04:16:15;;;;;;;2.20;1.73;;;14.80;99.90;14.40;97297.00;;;;5052735;28;20573;-84
2021/08/10 04:19:04;;;;;;;2.67;1.90;;;14.80;99.90;14.40;97301.00;;;;5054110;28;20204;-84
2021/08/10 04:21:54;;;;;;;2.27;2.10;;;14.70;99.90;14.40;97304.00;;;;5053540;28;20205;-87
2021/08/10 04:24:45;;;;;;;6.37;2.07;;;14.70;99.90;14.40;97303.00;;;;5053187;28;20193;-87
2021/08/10 04:27:34;;;;;;;4.18;2.25;;;14.70;99.90;14.40;97309.00;;;;5052329;28;20501;-88
2021/08/10 04:30:23;;;;;;;3.87;2.60;;;14.70;99.90;14.20;97294.00;;;;5053454;28;20212;-85
2021/08/10 04:33:12;;;;;;;5.23;2.30;;;14.70;99.90;14.20;97299.00;;;;5052198;28;20617;-87
2021/08/10 04:36:01;;;;;;;2.90;1.97;;;14.60;99.90;14.10;97302.00;;;;5051899;28;20215;-85
2021/08/10 04:38:50;;;;;;;4.33;2.30;;;14.60;99.90;14.20;97302.00;;;;5052857;28;20596;-87
2021/08/10 04:41:40;;;;;;;3.27;2.23;;;14.60;99.90;14.10;97311.00;;;;5051811;28;20228;-85
2021/08/10 04:44:29;;;;;;;2.50;1.60;;;14.50;99.90;14.30;97306.00;;;;5052085;28;20200;-86
2021/08/10 04:47:18;;;;;;;2.27;1.87;;;14.50;99.90;14.40;97308.00;;;;5071490;28;20634;-86
2021/08/10 04:50:09;;;;;;;1.83;1.67;;;14.60;99.90;14.60;97307.00;;;;5071364;28;20227;-86
2021/08/10 04:52:58;;;;;;;2.50;2.30;;;14.60;99.90;14.70;97298.00;;;;5070152;28;20230;-86
2021/08/10 04:55:47;;;;;;;2.57;2.33;;;14.80;99.90;14.90;97301.00;;;;5071036;28;20604;-85
2021/08/10 04:58:37;;;;;;;2.47;1.90;;;14.70;99.90;14.90;97303.00;;;;5070680;28;20215;-85
2021/08/10 05:01:26;;;;;;;3.13;2.20;;;14.90;99.90;15.10;97305.00;;;;5069535;28;20705;-86
2021/08/10 05:04:15;;;;;;;4.20;2.07;;;15.00;99.90;15.10;97304.00;;;;5071046;28;20929;-87
2021/08/10 05:07:05;;;;;;;1.73;1.53;;;15.10;99.90;15.20;97303.00;;;;5069849;28;20209;-86
2021/08/10 05:09:53;;;;;;;2.97;2.63;;;15.20;99.90;15.30;97304.00;;;;5050660;28;20751;-83
2021/08/10 05:12:42;;;;;;;2.37;2.10;;;15.30;99.90;15.30;97314.00;;;;5049040;28;20220;-86
2021/08/10 05:15:33;;;;;;;2.93;1.93;;;15.40;99.90;15.10;97298.00;;;;5050273;28;20196;-85
2021/08/10 05:18:22;;;;;;;3.27;2.00;;;15.40;99.90;15.40;97311.00;;;;5049908;28;20197;-83
2021/08/10 05:21:11;;;;;;;3.50;1.93;;;15.50;99.90;15.50;97310.00;;;;5049942;28;20228;-85
2021/08/10 05:24:00;;;;;;;2.67;2.10;;;15.50;99.90;15.30;97319.00;;;;5047777;28;20201;-86
2021/08/10 05:26:49;;;;;;;3.00;2.10;;;15.60;99.90;15.50;97314.00;;;;5049172;28;20204;-84
2021/08/10 05:29:40;;;;;;;2.30;1.60;;;15.60;99.90;15.60;97314.00;;;;5050350;28;20212;-86
2021/08/10 05:32:30;;;;;;;2.30;2.10;;;15.70;99.90;15.80;97312.00;;;;5049463;28;20204;-85
2021/08/10 05:35:22;;;;;;;2.63;1.53;;;15.80;99.90;15.70;97308.00;;;;5050700;28;20262;-86
2021/08/10 05:38:11;;;;;;;5.07;2.23;;;15.90;99.90;15.90;97310.00;;;;5051612;28;20677;-85
2021/08/10 05:41:00;;;;;;;2.10;1.90;;;15.90;99.90;16.00;97308.00;;;;5060127;28;20714;-87
2021/08/10 05:43:50;;;;;;;1.77;1.47;;;16.00;99.90;16.00;97302.00;;;;5029669;28;20197;-85
2021/08/10 05:46:39;;;;;;;1.77;1.63;;;16.10;99.90;16.10;97306.00;;;;5066957;28;20680;-84
2021/08/10 05:49:29;;;;;;;5.07;2.60;;;16.20;99.90;16.10;97307.00;;;;5070385;28;20364;-85
2021/08/10 05:52:18;;;;;;;3.17;2.70;;;16.30;99.90;16.30;97307.00;;;;5065943;28;20669;-86
2021/08/10 05:55:09;;;;;;;2.27;1.77;;;16.30;99.90;16.40;97309.00;;;;5027845;28;20205;-86
2021/08/10 05:57:58;;;;;;;2.13;1.93;;;16.40;99.90;16.40;97299.00;;;;5027195;28;20204;-85
2021/08/10 06:00:47;;;;;;;3.30;2.57;;;16.50;99.90;16.50;97296.00;;;;5025939;28;20601;-86
2021/08/10 06:03:36;;;;;;;2.83;2.00;;;16.50;99.90;16.80;97299.00;;;;5027293;28;20200;-85
2021/08/10 06:06:26;;;;;;;2.00;1.80;;;16.70;99.90;16.80;97293.00;;;;5028945;28;20201;-85
2021/08/10 06:09:15;;;;;;;2.57;1.90;;;16.80;99.90;17.00;97290.00;;;;5026349;28;20350;-84
2021/08/10 06:12:05;;;;;;;2.03;1.83;;;16.90;99.90;17.10;97288.00;;;;5030587;28;20582;-85
2021/08/10 06:14:54;;;;;;;5.00;2.50;;;17.10;99.90;17.10;97289.00;;;;5027067;28;20285;-87
2021/08/10 06:17:43;;;;;;;2.57;2.33;;;17.20;99.90;17.40;97281.00;;;;5024920;28;20209;-85
2021/08/10 06:20:32;;;;;;;2.73;2.10;;;17.40;99.90;17.40;97288.00;;;;5024367;28;20230;-85
2021/08/10 06:23:23;;;;;;;2.77;2.27;;;17.50;99.90;17.60;97289.00;;;;5023005;28;20212;-84
2021/08/10 06:26:12;;;;;;;2.83;2.50;;;17.60;99.90;17.80;97288.00;;;;5025014;28;20226;-86
2021/08/10 06:29:01;;;;;;;3.50;3.10;;;17.70;99.90;18.10;97285.00;;;;5024488;28;20206;-86
2021/08/10 06:31:50;;;;;;;5.00;2.77;;;17.90;99.90;18.40;97273.00;;;;5024554;28;20208;-87
2021/08/10 06:34:39;;;;;;;2.90;2.20;;;18.10;99.90;18.60;97275.00;;;;5026106;28;20299;-87
2021/08/10 06:37:28;;;;;;;3.67;2.40;;;18.30;99.90;18.60;97269.00;;;;5021373;28;20285;-87
2021/08/10 06:40:19;;;;;;;3.17;2.40;;;18.40;99.90;18.90;97259.00;;;;5022863;28;20275;-87
2021/08/10 06:43:09;;;;;;;3.13;2.50;;;18.60;99.90;19.30;97264.00;;;;5023989;28;20212;-84
2021/08/10 06:45:58;;;;;;;4.10;2.50;;;18.80;99.90;19.50;97258.00;;;;5030014;28;20217;-86
2021/08/10 06:48:47;;;;;;;3.10;2.60;;;19.10;99.90;19.70;97253.00;;;;5051558;28;20637;-86
2021/08/10 06:51:36;;;;;;;7.07;3.40;;;19.30;99.90;19.90;97263.00;;;;5051012;28;20231;-86
2021/08/10 06:54:25;;;;;;;8.17;2.70;;;19.50;99.90;19.90;97267.00;;;;5046637;28;20229;-87
2021/08/10 06:57:16;;;;;;;8.23;3.37;;;19.70;99.90;20.10;97269.00;;;;5041161;28;20208;-87
2021/08/10 07:00:07;;;;;;;3.20;2.70;;;18.90;99.90;20.10;97255.00;;;;5043607;28;20720;-86
2021/08/10 07:02:56;;;;;;;4.23;2.43;;;19.90;99.90;20.20;97248.00;;;;5052045;28;20239;-86
2021/08/10 07:05:45;;;;;;;5.63;3.10;;;20.00;99.90;20.40;97252.00;;;;5055305;28;20243;-86
2021/08/10 07:08:34;;;;;;;2.67;1.97;;;20.10;99.90;20.50;97246.00;;;;5051603;28;20207;-86
2021/08/10 07:11:23;;;;;;;2.77;2.47;;;20.20;99.90;20.80;97243.00;;;;5050608;28;20319;-88
2021/08/10 07:14:14;;;;;;;3.10;2.40;;;20.40;99.90;21.00;97257.00;;;;5037958;28;20239;-87
2021/08/10 07:17:03;;;;;;;2.53;2.10;;;20.60;99.90;21.00;97253.00;;;;5047496;28;20633;-85
2021/08/10 07:19:52;;;;;;;5.33;3.60;;;20.80;99.90;21.10;97255.00;;;;5046633;28;20310;-87
2021/08/10 07:22:41;;;;;;;3.40;2.88;;;20.90;99.90;21.30;97264.00;;;;5051869;28;20420;-87
2021/08/10 07:25:30;;;;;;;3.43;2.13;;;21.00;99.90;21.30;97262.00;;;;5056781;28;20197;-87
2021/08/10 07:28:19;;;;;;;2.80;2.40;;;21.10;99.90;21.40;97252.00;;;;5051991;28;20211;-88
2021/08/10 07:31:10;;;;;;;3.73;2.23;;;21.30;99.90;21.60;97248.00;;;;5058476;28;20243;-87
2021/08/10 07:34:13;;;;;;;2.90;2.33;;;21.40;99.90;21.70;97243.00;;;;5050492;28;20658;-87
2021/08/10 07:37:02;;;;;;;2.87;2.00;;;21.50;99.90;21.80;97241.00;;;;5051584;28;20254;-87
2021/08/10 07:39:51;;;;;;;3.63;2.73;;;21.60;99.90;22.00;97242.00;;;;5057689;28;20220;-89
2021/08/10 07:42:41;;;;;;;4.97;2.40;;;21.70;99.90;22.10;97237.00;;;;5052018;28;20200;-87
2021/08/10 07:45:30;;;;;;;8.33;4.80;;;21.80;99.90;22.40;97238.00;;;;5054774;28;20247;-88
2021/08/10 07:48:20;;;;;;;4.10;1.83;;;22.00;99.90;22.50;97231.00;;;;5055102;28;20197;-87
2021/08/10 07:51:10;;;;;;;2.47;2.20;;;22.20;99.90;22.60;97229.00;;;;5054633;28;20236;-87
2021/08/10 07:53:59;;;;;;;2.80;1.77;;;22.30;99.90;22.60;97242.00;;;;5042132;28;20216;-87
2021/08/10 07:56:48;;;;;;;3.50;2.33;;;23.10;99.90;22.60;97239.00;;;;5049024;28;20677;-89
2021/08/10 07:59:37;;;;;;;3.30;2.63;;;22.50;99.90;22.40;97233.00;;;;5043286;28;20209;-87
2021/08/10 08:02:26;;;;;;;2.23;2.03;;;22.50;99.90;22.50;97226.00;;;;5041916;28;20207;-87
2021/08/10 08:05:19;;;;;;;2.60;2.17;;;22.50;99.90;23.00;97228.00;;;;5044029;28;20704;-88
2021/08/10 08:08:08;;;;;;;3.97;2.30;;;22.60;99.90;23.00;97224.00;;;;5044367;28;20209;-88
2021/08/10 08:10:58;;;;;;;2.10;1.83;;;22.70;99.90;22.90;97213.00;;;;5053623;28;20224;-88
2021/08/10 08:13:47;;;;;;;5.27;2.57;;;22.80;99.90;23.10;97221.00;;;;5049863;28;20210;-88
2021/08/10 08:16:36;;;;;;;3.90;2.03;;;22.80;99.90;23.30;97226.00;;;;5046539;28;20212;-88
2021/08/10 08:19:25;;;;;;;2.50;2.30;;;23.00;99.90;23.20;97215.00;;;;5045097;28;20231;-88
2021/08/10 08:22:18;;;;;;;3.10;2.50;;;23.00;99.90;23.50;97213.00;;;;5053295;28;20196;-87
2021/08/10 08:25:08;;;;;;;2.47;2.27;;;23.10;99.90;23.80;97212.00;;;;5043318;28;20219;-88
2021/08/10 08:27:57;;;;;;;3.57;2.40;;;23.30;99.90;23.90;97213.00;;;;5052189;28;20219;-87
2021/08/10 08:30:46;;;;;;;2.40;2.20;;;23.50;99.90;24.10;97218.00;;;;5051401;28;20232;-87
2021/08/10 08:33:35;;;;;;;3.13;2.77;;;23.70;99.90;24.30;97213.00;;;;5038749;28;20577;-88
2021/08/10 08:36:24;;;;;;;2.80;2.37;;;23.90;99.90;24.40;97214.00;;;;5050384;28;20212;-88
2021/08/10 08:39:14;;;;;;;5.60;2.70;;;24.00;99.90;24.30;97212.00;;;;5051103;28;20211;-87
2021/08/10 08:42:05;;;;;;;3.33;2.57;;;24.10;99.90;24.50;97224.00;;;;5043768;28;20212;-88
2021/08/10 08:44:54;;;;;;;2.43;2.23;;;24.20;99.90;24.40;97218.00;;;;5049695;28;20218;-88
2021/08/10 08:47:50;;;;;;;2.50;2.30;;;24.20;99.90;24.60;97224.00;;;;5043641;28;20488;-87
2021/08/10 08:50:41;;;;;;;4.10;2.57;;;24.30;99.90;24.80;97226.00;;;;5042435;28;20239;-87
2021/08/10 08:53:30;;;;;;;4.30;2.30;;;24.40;99.90;25.10;97217.00;;;;5056269;28;20573;-88
2021/08/10 08:56:22;;;;;;;3.57;2.63;;;24.60;99.90;25.30;97224.00;;;;5048990;28;20225;-88
2021/08/10 08:59:11;;;;;;;2.93;2.20;;;24.80;99.90;25.60;97223.00;;;;5055459;28;20226;-87
2021/08/10 09:02:01;;;;;;;2.50;2.30;;;25.00;99.90;25.70;97227.00;;;;5053824;28;20202;-88
2021/08/10 09:04:50;;;;;;;3.17;2.50;;;25.10;99.90;25.80;97217.00;;;;5050794;28;20569;-88
2021/08/10 09:07:39;;;;;;;2.57;2.30;;;25.30;99.90;25.60;97219.00;;;;5047120;28;20200;-87
2021/08/10 09:10:30;;;;;;;2.20;1.90;;;25.40;99.90;26.00;97222.00;;;;5051054;28;20228;-88
2021/08/10 09:13:20;;;;;;;2.67;2.07;;;25.50;99.90;26.00;97224.00;;;;5049311;28;20207;-87
2021/08/10 09:16:13;;;;;;;4.00;3.00;;;25.60;99.40;26.10;97218.00;;;;5048159;28;20255;-87
2021/08/10 09:19:02;;;;;;;6.67;2.30;;;25.70;96.60;25.60;97206.00;;;;5046776;28;20266;-87
2021/08/10 09:21:51;;;;;;;2.47;2.20;;;25.80;94.50;26.00;97203.00;;;;5050810;28;20223;-88
2021/08/10 09:24:44;;;;;;;2.10;1.67;;;25.80;96.30;26.30;97189.00;;;;5050466;28;20197;-88
2021/08/10 09:27:37;;;;;;;3.87;1.97;;;25.90;94.10;26.60;97199.00;;;;5050218;28;20218;-87
2021/08/10 09:30:27;;;;;;;2.60;2.40;;;26.00;94.60;26.60;97198.00;;;;5053799;28;20335;-88
2021/08/10 09:33:16;;;;;;;2.33;2.00;;;26.10;94.20;26.80;97192.00;;;;5049307;28;20201;-87
2021/08/10 09:36:20;;;;;;;2.47;2.27;;;26.30;94.00;26.90;97191.00;;;;5050151;28;20606;-89
2021/08/10 09:39:09;;;;;;;4.77;1.80;;;26.40;93.00;27.10;97189.00;;;;5056093;28;20725;-88
2021/08/10 09:42:03;;;;;;;2.67;2.27;;;26.60;93.90;27.40;97183.00;;;;5049097;28;20265;-88
2021/08/10 09:45:09;;;;;;;2.60;1.87;;;26.80;93.60;27.40;97184.00;;;;5054254;28;20507;-87
2021/08/10 09:48:18;;;;;;;4.57;2.23;;;26.90;92.30;27.70;97180.00;;;;5050961;28;20202;-88
2021/08/10 09:51:16;;;;;;;3.03;2.30;;;27.10;92.40;27.90;97175.00;;;;5038829;28;20224;-88
2021/08/10 09:54:09;;;;;;;3.50;2.40;;;27.30;92.10;28.00;97177.00;;;;5036542;28;20211;-87
2021/08/10 09:57:01;;;;;;;2.17;1.90;;;27.40;91.30;28.20;97181.00;;;;5041094;28;20244;-88
2021/08/10 09:59:57;;;;;;;2.70;1.83;;;27.60;91.20;27.30;97168.00;;;;5041768;28;20235;-87
2021/08/10 10:03:20;;;;;;;2.33;2.00;;;27.50;87.90;28.30;97173.00;;;;5058947;28;20674;-88
2021/08/10 10:06:12;;;;;;;4.17;2.00;;;27.60;88.80;28.30;97173.00;;;;5035643;28;20215;-87
2021/08/10 10:09:01;;;;;;;2.23;1.93;;;27.80;88.40;28.50;97173.00;;;;5052045;28;20231;-87
2021/08/10 10:11:53;;;;;;;2.77;2.00;;;27.90;84.40;28.60;97163.00;;;;5050934;28;20231;-88
2021/08/10 10:14:44;;;;;;;1.93;1.73;;;28.00;80.80;28.70;97159.00;;;;5049782;28;20234;-87
2021/08/10 10:17:34;;;;;;;2.90;1.87;;;28.10;78.30;28.80;97160.00;;;;5051650;28;20206;-87
2021/08/10 10:20:25;;;;;;;2.70;2.00;;;28.20;78.20;28.40;97148.00;;;;5042143;28;20642;-87
2021/08/10 10:23:19;;;;;;;2.20;2.00;;;28.30;79.50;28.50;97148.00;;;;5053815;28;20207;-87
2021/08/10 10:26:09;;;;;;;3.23;2.33;;;28.30;77.00;29.20;97143.00;;;;5058453;28;20208;-87
2021/08/10 10:28:58;;;;;;;2.80;2.20;;;28.40;76.90;28.60;97146.00;;;;5055461;28;20198;-87
2021/08/10 10:31:47;;;;;;;7.10;2.20;;;28.50;74.40;28.70;97132.00;;;;5046208;28;20237;-87
2021/08/10 10:34:37;;;;;;;3.27;2.10;;;28.50;72.40;29.40;97132.00;;;;5061053;28;20258;-87
2021/08/10 10:37:31;;;;;;;3.83;2.43;;;28.60;71.30;29.60;97124.00;;;;5048507;28;20662;-87
2021/08/10 10:40:22;;;;;;;2.30;2.10;;;28.80;70.90;29.30;97127.00;;;;5056477;28;20236;-87
2021/08/10 10:43:11;;;;;;;2.50;1.73;;;28.90;68.70;29.10;97117.00;;;;5054469;28;20563;-86
2021/08/10 10:46:23;;;;;;;3.33;2.00;;;28.90;66.10;29.80;97109.00;;;;5054253;28;20674;-86
2021/08/10 10:49:28;;;;;;;3.77;2.57;;;29.00;65.40;29.50;97110.00;;;;5036357;28;20219;-87
2021/08/10 10:52:18;;;;;;;3.03;2.20;;;29.20;67.10;30.10;97109.00;;;;5050386;28;20192;-87
2021/08/10 10:55:11;;;;;;;4.83;2.47;;;29.40;65.70;30.70;97099.00;;;;5051504;28;20196;-87
2021/08/10 10:58:28;;;;;;;3.63;2.17;;;29.60;66.60;30.70;97099.00;;;;5052356;28;20206;-87
2021/08/10 11:01:22;;;;;;;3.20;2.63;;;29.80;65.50;31.20;97094.00;;;;5034506;28;21495;-87
2021/08/10 11:04:13;;;;;;;2.85;1.95;;;30.10;65.80;30.80;97100.00;;;;5060173;28;20203;-87
2021/08/10 11:07:35;;;;;;;4.03;2.40;;;30.30;64.40;31.00;97092.00;;;;5043145;28;20215;-87
2021/08/10 11:10:44;;;;;;;5.07;2.88;;;30.30;64.40;30.80;97088.00;;;;5041547;28;20223;-87
2021/08/10 11:13:39;;;;;;;5.80;2.10;;;30.40;64.30;30.00;97091.00;;;;5047399;28;20217;-87
2021/08/10 11:17:03;;;;;;;4.00;2.85;;;30.50;63.40;30.50;97085.00;;;;5045808;28;20637;-87
2021/08/10 11:19:53;;;;;;;3.90;2.45;;;30.30;64.30;31.20;97078.00;;;;5042070;28;20236;-86
2021/08/10 11:22:42;;;;;;;2.50;2.28;;;30.50;60.90;31.10;97069.00;;;;5037525;28;20735;-86
2021/08/10 11:25:31;;;;;;;3.10;2.67;;;30.60;59.20;31.50;97067.00;;;;5043131;28;20687;-86
2021/08/10 11:28:29;;;;;;;3.53;2.65;;;30.80;59.80;31.60;97066.00;;;;5048668;28;20795;-87
2021/08/10 11:31:38;;;;;;;2.45;2.17;;;31.00;61.50;31.20;97061.00;;;;5047939;28;20232;-87
2021/08/10 11:34:38;;;;;;;5.53;2.92;;;31.20;58.90;32.30;97066.00;;;;5037083;28;20196;-87
2021/08/10 11:37:30;;;;;;;4.75;2.90;;;31.40;59.60;32.00;97066.00;;;;5045989;28;20835;-87
2021/08/10 11:40:18;;;;;;;3.95;2.67;;;31.60;57.50;32.40;97065.00;;;;5055348;28;20220;-87
2021/08/10 11:43:08;;;;;;;3.45;2.67;;;31.70;56.00;32.80;97056.00;;;;5040234;28;20209;-87
2021/08/10 11:45:59;;;;;;;3.58;2.55;;;31.90;56.70;32.20;97060.00;;;;5050296;28;20556;-87
2021/08/10 11:48:51;;;;;;;4.18;2.65;;;32.00;56.80;33.10;97058.00;;;;5053224;28;20678;-87
2021/08/10 11:51:42;;;;;;;3.72;2.72;;;32.30;56.50;32.80;97050.00;;;;5039405;28;20225;-87
2021/08/10 11:54:31;;;;;;;5.72;3.30;;;32.50;55.90;33.50;97061.00;;;;5036706;28;20196;-87
2021/08/10 11:57:20;;;;;;;5.60;2.47;;;32.50;57.30;33.90;97058.00;;;;5045539;28;20702;-86
2021/08/10 12:00:17;;;;;;;3.88;2.42;;;32.70;55.80;33.70;97051.00;;;;5052500;28;20222;-87
2021/08/10 12:03:07;;;;;;;4.22;3.25;;;33.00;55.10;33.30;97055.00;;;;5051104;28;20208;-88
2021/08/10 12:05:59;;;;;;;3.78;2.92;;;33.10;54.80;33.70;97046.00;;;;5050435;28;20208;-86
2021/08/10 12:08:48;;;;;;;3.25;2.53;;;33.10;54.90;33.80;97047.00;;;;5040976;28;20205;-87
2021/08/10 12:11:37;;;;;;;4.22;2.40;;;33.30;55.60;33.80;97041.00;;;;5047831;28;20217;-87
2021/08/10 12:14:29;;;;;;;3.03;2.70;;;33.30;54.50;34.00;97050.00;;;;5054516;28;20204;-87
2021/08/10 12:17:18;;;;;;;4.00;2.90;;;33.40;55.70;33.80;97040.00;;;;5041730;28;20232;-87
2021/08/10 12:20:47;;;;;;;3.05;2.65;;;33.60;52.60;31.60;97038.00;;;;5050908;28;20233;-87
2021/08/10 12:23:45;;;;;;;4.72;2.28;;;33.20;51.60;32.00;97031.00;;;;5046576;28;20249;-87
2021/08/10 12:26:37;;;;;;;2.65;2.45;;;32.70;51.30;32.90;97026.00;;;;5046456;28;20228;-86
2021/08/10 12:29:34;;;;;;;4.63;2.40;;;32.60;50.90;33.20;97027.00;;;;5043619;28;20208;-87
2021/08/10 12:32:26;;;;;;;3.08;2.40;;;32.70;53.20;33.40;97017.00;;;;5048608;28;20254;-86
2021/08/10 12:35:18;;;;;;;3.05;2.65;;;32.80;52.50;34.00;97017.00;;;;5051077;28;20200;-86
2021/08/10 12:38:08;;;;;;;6.18;2.75;;;32.90;54.10;33.70;97013.00;;;;5048745;28;20238;-85
2021/08/10 12:40:58;;;;;;;2.63;2.17;;;33.10;52.70;34.20;97022.00;;;;5050616;28;20228;-86
2021/08/10 12:43:50;;;;;;;6.82;3.53;;;33.30;53.70;34.60;97023.00;;;;5054540;28;20204;-87